createdAt,value
2018-09-29T00:01:01.980Z,11.60
2018-09-29T00:03:30.773Z,11.60
2018-09-29T00:05:59.364Z,11.50
2018-09-29T00:08:28.054Z,11.50
2018-09-29T00:10:56.832Z,11.50
2018-09-29T00:13:25.341Z,11.50
2018-09-29T00:15:54.180Z,11.50
2018-09-29T00:18:22.601Z,11.50
2018-09-29T00:20:51.107Z,11.50
2018-09-29T00:23:19.838Z,11.50
2018-09-29T00:25:48.426Z,11.40
2018-09-29T00:28:17.033Z,11.50
2018-09-29T00:30:45.598Z,11.50
2018-09-29T00:33:14.151Z,11.40
2018-09-29T00:35:42.870Z,11.40
2018-09-29T00:38:11.552Z,11.40
2018-09-29T00:40:40.695Z,11.40
2018-09-29T00:43:09.826Z,11.40
2018-09-29T00:45:38.307Z,11.40
2018-09-29T00:48:06.912Z,11.30
2018-09-29T00:50:35.590Z,11.30
2018-09-29T00:53:04.650Z,11.30
2018-09-29T00:55:33.266Z,11.20
2018-09-29T00:58:01.870Z,11.20
2018-09-29T01:00:30.380Z,11.30
2018-09-29T01:02:59.071Z,11.20
2018-09-29T01:05:27.852Z,11.20
2018-09-29T01:07:56.527Z,11.20
2018-09-29T01:10:25.195Z,11.20
2018-09-29T01:12:54.122Z,11.30
2018-09-29T01:15:22.761Z,11.20
2018-09-29T01:17:51.196Z,11.20
2018-09-29T01:20:19.645Z,11.20
2018-09-29T01:22:48.012Z,11.20
2018-09-29T01:25:16.628Z,11.10
2018-09-29T01:27:45.167Z,11.10
2018-09-29T01:30:13.832Z,11.20
2018-09-29T01:32:42.418Z,11.10
2018-09-29T01:35:11.322Z,11.10
2018-09-29T01:37:39.794Z,11.10
2018-09-29T01:40:08.798Z,11.10
2018-09-29T01:42:37.541Z,11.10
2018-09-29T01:45:06.555Z,11.10
2018-09-29T01:47:35.173Z,11.10
2018-09-29T01:50:03.802Z,11.10
2018-09-29T01:52:32.314Z,11.10
2018-09-29T02:00:23.298Z,11.00
2018-09-29T02:02:52.093Z,10.90
2018-09-29T02:05:20.904Z,10.90
2018-09-29T02:07:49.896Z,10.90
2018-09-29T02:10:18.526Z,10.80
2018-09-29T02:12:47.032Z,10.80
2018-09-29T02:15:15.544Z,10.80
2018-09-29T02:17:44.033Z,10.80
2018-09-29T02:20:12.552Z,10.70
2018-09-29T02:22:40.998Z,10.70
2018-09-29T02:25:09.497Z,10.70
2018-09-29T02:27:38.245Z,10.60
2018-09-29T02:30:06.792Z,10.60
2018-09-29T02:32:35.384Z,10.60
2018-09-29T02:35:04.181Z,10.60
2018-09-29T02:37:33.166Z,10.60
2018-09-29T02:40:01.959Z,10.50
2018-09-29T02:42:30.640Z,10.40
2018-09-29T02:44:59.238Z,10.40
2018-09-29T02:47:27.699Z,10.40
2018-09-29T02:49:56.290Z,10.30
2018-09-29T02:52:25.074Z,10.20
2018-09-29T02:54:53.884Z,10.20
2018-09-29T02:57:22.603Z,10.20
2018-09-29T02:59:51.336Z,10.20
2018-09-29T03:02:20.065Z,10.20
2018-09-29T03:04:48.669Z,10.10
2018-09-29T03:07:17.397Z,10.10
2018-09-29T03:09:45.811Z,10.10
2018-09-29T03:12:14.492Z,10.10
2018-09-29T03:14:43.152Z,10.10
2018-09-29T03:17:11.537Z,10.00
2018-09-29T03:19:40.018Z,10.00
2018-09-29T03:22:08.950Z,9.90
2018-09-29T03:24:37.908Z,9.90
2018-09-29T03:27:06.804Z,9.90
2018-09-29T03:29:35.556Z,9.90
2018-09-29T03:32:04.082Z,9.80
2018-09-29T03:34:32.680Z,9.80
2018-09-29T03:37:01.458Z,9.80
2018-09-29T03:39:30.147Z,9.80
2018-09-29T03:41:58.651Z,9.80
2018-09-29T03:44:27.207Z,9.70
2018-09-29T03:46:55.860Z,9.70
2018-09-29T03:49:24.833Z,9.70
2018-09-29T03:51:53.837Z,9.60
2018-09-29T03:54:22.856Z,9.60
2018-09-29T03:56:51.929Z,9.70
2018-09-29T03:59:20.508Z,9.70
2018-09-29T04:01:49.147Z,9.60
2018-09-29T04:04:17.995Z,9.50
2018-09-29T04:06:47.447Z,9.40
2018-09-29T04:09:16.103Z,9.50
2018-09-29T04:11:44.582Z,9.50
2018-09-29T04:14:13.041Z,9.50
2018-09-29T04:16:41.507Z,9.50
2018-09-29T04:19:10.116Z,9.50
2018-09-29T04:21:45.969Z,9.40
2018-09-29T04:24:15.214Z,9.50
2018-09-29T04:26:43.889Z,9.30
2018-09-29T04:29:13.435Z,9.30
2018-09-29T04:31:42.643Z,9.30
2018-09-29T04:34:12.242Z,9.30
2018-09-29T04:36:41.265Z,9.20
2018-09-29T04:39:12.794Z,9.20
2018-09-29T04:41:41.605Z,9.20
2018-09-29T04:44:11.008Z,9.10
2018-09-29T04:46:41.023Z,9.20
2018-09-29T04:49:10.471Z,9.20
2018-09-29T04:51:39.466Z,9.20
2018-09-29T04:54:08.318Z,9.20
2018-09-29T04:56:37.593Z,9.20
2018-09-29T05:01:59.428Z,9.10
2018-09-29T05:04:28.317Z,9.20
2018-09-29T05:06:56.964Z,9.10
2018-09-29T05:09:25.448Z,9.10
2018-09-29T05:11:54.209Z,9.00
2018-09-29T05:14:22.706Z,9.10
2018-09-29T05:16:51.341Z,9.10
2018-09-29T05:19:19.801Z,9.00
2018-09-29T05:21:48.440Z,9.00
2018-09-29T05:24:17.136Z,8.90
2018-09-29T05:26:45.743Z,9.00
2018-09-29T05:29:14.489Z,8.90
2018-09-29T05:31:43.293Z,9.00
2018-09-29T05:34:12.034Z,8.90
2018-09-29T05:36:40.793Z,9.00
2018-09-29T05:39:11.039Z,8.70
2018-09-29T05:41:39.911Z,8.90
2018-09-29T05:44:09.177Z,8.90
2018-09-29T05:46:38.248Z,8.90
2018-09-29T05:49:06.780Z,8.90
2018-09-29T05:51:35.644Z,9.00
2018-09-29T05:54:04.689Z,9.00
2018-09-29T05:56:33.320Z,9.00
2018-09-29T05:59:01.904Z,8.90
2018-09-29T06:01:30.683Z,9.00
2018-09-29T06:03:59.645Z,9.00
2018-09-29T06:06:30.933Z,9.10
2018-09-29T06:09:00.321Z,9.10
2018-09-29T06:11:28.838Z,9.10
2018-09-29T06:13:57.666Z,9.20
2018-09-29T06:16:26.183Z,9.20
2018-09-29T06:18:54.991Z,9.30
2018-09-29T06:21:24.183Z,9.20
2018-09-29T06:23:52.976Z,9.20
2018-09-29T06:26:21.808Z,9.30
2018-09-29T06:28:50.283Z,9.40
2018-09-29T06:31:19.027Z,9.40
2018-09-29T06:33:47.725Z,9.40
2018-09-29T06:36:16.538Z,9.50
2018-09-29T06:38:45.517Z,9.60
2018-09-29T06:41:14.703Z,9.60
2018-09-29T06:43:43.577Z,9.70
2018-09-29T06:46:12.041Z,9.70
2018-09-29T06:48:40.715Z,9.80
2018-09-29T06:51:09.878Z,9.80
2018-09-29T06:53:40.191Z,9.90
2018-09-29T06:56:10.953Z,10.00
2018-09-29T06:58:39.593Z,10.00
2018-09-29T07:01:08.810Z,10.10
2018-09-29T07:03:37.834Z,10.10
2018-09-29T07:06:06.819Z,10.20
2018-09-29T07:08:35.309Z,10.10
2018-09-29T07:11:03.800Z,10.20
2018-09-29T07:13:32.430Z,10.30
2018-09-29T07:16:01.302Z,10.30
2018-09-29T07:18:30.277Z,10.30
2018-09-29T07:20:59.088Z,10.30
2018-09-29T07:23:27.690Z,10.40
2018-09-29T07:25:56.325Z,10.40
2018-09-29T07:28:25.066Z,10.50
2018-09-29T07:30:55.334Z,10.50
2018-09-29T07:33:24.195Z,10.60
2018-09-29T07:35:53.134Z,10.60
2018-09-29T07:38:22.541Z,10.60
2018-09-29T07:40:51.601Z,10.50
2018-09-29T07:43:20.143Z,10.60
2018-09-29T07:45:48.824Z,10.70
2018-09-29T07:48:17.583Z,10.80
2018-09-29T07:50:48.105Z,10.80
2018-09-29T07:53:17.255Z,10.80
2018-09-29T07:55:46.455Z,10.80
2018-09-29T07:58:15.744Z,10.80
2018-09-29T08:00:44.493Z,10.90
2018-09-29T08:03:13.062Z,11.00
2018-09-29T08:05:41.617Z,11.00
2018-09-29T08:08:10.078Z,11.00
2018-09-29T08:10:38.604Z,11.10
2018-09-29T08:13:07.509Z,11.10
2018-09-29T08:15:36.685Z,11.20
2018-09-29T08:18:05.626Z,11.20
2018-09-29T08:20:34.528Z,11.30
2018-09-29T08:23:03.403Z,11.40
2018-09-29T08:25:32.207Z,11.50
2018-09-29T08:28:00.900Z,11.50
2018-09-29T08:30:29.353Z,11.60
2018-09-29T08:32:58.045Z,11.60
2018-09-29T08:35:27.089Z,11.60
2018-09-29T08:37:55.907Z,11.60
2018-09-29T08:40:24.808Z,11.80
2018-09-29T08:42:54.029Z,11.70
2018-09-29T08:45:23.242Z,11.80
2018-09-29T08:47:52.305Z,11.80
2018-09-29T08:50:21.129Z,11.80
2018-09-29T08:52:50.120Z,11.70
2018-09-29T08:55:18.868Z,11.80
2018-09-29T08:57:47.331Z,11.90
2018-09-29T09:00:16.122Z,11.90
2018-09-29T09:02:44.655Z,12.00
2018-09-29T09:05:13.452Z,11.90
2018-09-29T09:07:42.120Z,11.90
2018-09-29T09:10:10.645Z,12.00
2018-09-29T09:12:39.317Z,12.10
2018-09-29T09:15:08.458Z,12.20
2018-09-29T09:17:37.275Z,12.20
2018-09-29T09:20:05.963Z,12.30
2018-09-29T09:22:34.501Z,12.30
2018-09-29T09:25:03.152Z,12.40
2018-09-29T09:27:32.141Z,12.40
2018-09-29T09:30:01.156Z,12.40
2018-09-29T09:32:29.799Z,12.40
2018-09-29T09:34:58.589Z,12.50
2018-09-29T09:37:27.809Z,12.60
2018-09-29T09:39:56.644Z,12.60
2018-09-29T09:42:25.534Z,12.50
2018-09-29T09:44:54.413Z,12.60
2018-09-29T09:47:23.538Z,12.70
2018-09-29T09:49:52.367Z,12.70
2018-09-29T09:52:20.945Z,12.80
2018-09-29T09:54:49.648Z,12.80
2018-09-29T09:57:18.409Z,12.90
2018-09-29T09:59:46.912Z,13.00
2018-09-29T10:02:20.826Z,12.90
2018-09-29T10:04:49.564Z,12.90
2018-09-29T10:07:18.276Z,13.00
2018-09-29T10:09:46.727Z,13.00
2018-09-29T10:12:16.190Z,13.10
2018-09-29T10:14:45.206Z,13.00
2018-09-29T10:17:14.192Z,13.10
2018-09-29T10:19:43.114Z,13.20
2018-09-29T10:22:12.277Z,13.20
2018-09-29T10:24:40.926Z,13.30
2018-09-29T10:27:10.522Z,13.30
2018-09-29T10:29:39.503Z,13.20
2018-09-29T10:32:07.990Z,13.30
2018-09-29T10:34:36.581Z,13.40
2018-09-29T10:37:05.392Z,13.50
2018-09-29T10:39:34.427Z,13.40
2018-09-29T10:42:03.238Z,13.50
2018-09-29T10:44:31.895Z,13.60
2018-09-29T10:47:00.627Z,13.70
2018-09-29T10:49:29.592Z,13.80
2018-09-29T10:51:58.371Z,13.80
2018-09-29T10:54:27.494Z,13.80
2018-09-29T10:56:55.990Z,13.80
2018-09-29T10:59:24.495Z,13.80
2018-09-29T11:01:53.078Z,13.80
2018-09-29T11:04:21.610Z,13.80
2018-09-29T11:06:50.106Z,13.80
2018-09-29T11:09:18.635Z,13.80
2018-09-29T11:11:47.254Z,13.80
2018-09-29T11:14:16.512Z,13.90
2018-09-29T11:16:45.171Z,13.90
2018-09-29T11:19:13.998Z,13.90
2018-09-29T11:21:42.669Z,14.00
2018-09-29T11:24:11.312Z,14.20
2018-09-29T11:26:40.120Z,14.20
2018-09-29T11:29:09.094Z,14.20
2018-09-29T11:31:37.961Z,14.20
2018-09-29T11:34:06.773Z,14.20
2018-09-29T11:36:35.401Z,14.20
2018-09-29T11:39:06.041Z,14.30
2018-09-29T11:41:38.888Z,14.30
2018-09-29T11:44:08.155Z,14.40
2018-09-29T11:46:37.338Z,14.40
2018-09-29T11:49:06.922Z,14.30
2018-09-29T11:51:35.695Z,14.30
2018-09-29T11:54:05.293Z,14.50
2018-09-29T11:56:34.027Z,14.60
2018-09-29T11:59:02.757Z,14.50
2018-09-29T12:01:31.571Z,14.50
2018-09-29T12:04:00.444Z,14.60
2018-09-29T12:06:29.550Z,14.60
2018-09-29T12:08:58.312Z,14.60
2018-09-29T12:11:27.198Z,14.70
2018-09-29T12:13:55.649Z,14.70
2018-09-29T12:16:24.682Z,14.70
2018-09-29T12:18:53.763Z,14.70
2018-09-29T12:21:22.999Z,14.80
2018-09-29T12:23:51.831Z,14.80
2018-09-29T12:26:20.673Z,14.90
2018-09-29T12:28:49.970Z,14.80
2018-09-29T12:31:18.902Z,14.90
2018-09-29T12:33:47.966Z,14.90
2018-09-29T12:36:16.900Z,14.90
2018-09-29T12:38:45.561Z,14.90
2018-09-29T12:41:14.395Z,14.90
2018-09-29T12:43:43.210Z,15.00
2018-09-29T12:46:12.064Z,15.00
2018-09-29T12:48:40.968Z,15.10
2018-09-29T12:51:09.862Z,15.10
2018-09-29T12:53:38.572Z,15.20
2018-09-29T12:56:07.265Z,15.20
2018-09-29T12:58:35.984Z,15.30
2018-09-29T13:01:04.444Z,15.20
2018-09-29T13:03:33.125Z,15.20
2018-09-29T13:06:02.874Z,15.30
2018-09-29T13:08:31.916Z,15.40
2018-09-29T13:11:00.813Z,15.40
2018-09-29T13:13:29.595Z,15.40
2018-09-29T13:15:58.395Z,15.40
2018-09-29T13:18:26.875Z,15.40
2018-09-29T13:20:55.476Z,15.50
2018-09-29T13:23:24.225Z,15.50
2018-09-29T13:25:52.903Z,15.50
2018-09-29T13:28:21.535Z,15.40
2018-09-29T13:30:50.370Z,15.40
2018-09-29T13:33:19.355Z,15.40
2018-09-29T13:35:47.943Z,15.40
2018-09-29T13:38:17.642Z,15.30
2018-09-29T13:40:46.084Z,15.40
2018-09-29T13:43:14.640Z,15.40
2018-09-29T13:45:43.488Z,15.50
2018-09-29T13:48:12.227Z,15.40
2018-09-29T13:50:41.428Z,15.40
2018-09-29T13:53:10.010Z,15.40
2018-09-29T13:55:38.601Z,15.40
2018-09-29T13:58:07.253Z,15.40
2018-09-29T14:00:35.969Z,15.40
2018-09-29T14:03:04.626Z,15.40
2018-09-29T14:05:33.813Z,15.40
2018-09-29T14:08:02.548Z,15.40
2018-09-29T14:10:31.841Z,15.40
2018-09-29T14:13:00.573Z,15.40
2018-09-29T14:15:29.247Z,15.30
2018-09-29T14:17:58.008Z,15.30
2018-09-29T14:20:26.788Z,15.30
2018-09-29T14:22:56.027Z,15.20
2018-09-29T14:25:25.078Z,15.20
2018-09-29T14:27:54.008Z,15.20
2018-09-29T14:30:23.164Z,15.30
2018-09-29T14:32:52.081Z,15.20
2018-09-29T14:35:20.619Z,15.30
2018-09-29T14:37:49.257Z,15.30
2018-09-29T14:40:18.227Z,15.20
2018-09-29T14:42:47.637Z,15.30
2018-09-29T14:45:16.492Z,15.20
2018-09-29T14:47:45.207Z,15.20
2018-09-29T14:50:13.899Z,15.20
2018-09-29T14:52:42.455Z,15.20
2018-09-29T14:55:11.158Z,15.20
2018-09-29T14:57:39.613Z,15.20
2018-09-29T15:00:08.050Z,15.20
2018-09-29T15:02:36.848Z,15.20
2018-09-29T15:05:05.800Z,15.20
2018-09-29T15:07:34.890Z,15.20
2018-09-29T15:10:03.713Z,15.10
2018-09-29T15:12:32.465Z,15.10
2018-09-29T15:15:01.031Z,15.10
2018-09-29T15:17:29.750Z,15.10
2018-09-29T15:19:58.192Z,15.10
2018-09-29T15:22:26.810Z,15.10
2018-09-29T15:24:56.329Z,15.00
2018-09-29T15:27:24.904Z,15.00
2018-09-29T15:29:53.454Z,15.00
2018-09-29T15:32:22.303Z,15.00
2018-09-29T15:34:51.281Z,15.00
2018-09-29T15:37:20.112Z,14.90
2018-09-29T15:39:49.014Z,14.90
2018-09-29T15:42:17.897Z,14.90
2018-09-29T15:44:46.415Z,14.90
2018-09-29T15:47:14.882Z,14.90
2018-09-29T15:49:43.818Z,14.90
2018-09-29T15:52:12.574Z,14.80
2018-09-29T15:54:41.162Z,14.90
2018-09-29T15:57:09.680Z,14.80
2018-09-29T15:59:38.279Z,14.80
2018-09-29T16:02:07.265Z,14.80
2018-09-29T16:04:35.910Z,14.70
2018-09-29T16:07:04.525Z,14.70
2018-09-29T16:09:33.293Z,14.60
2018-09-29T16:12:02.180Z,14.50
2018-09-29T16:14:31.018Z,14.40
2018-09-29T16:17:00.004Z,14.30
2018-09-29T16:19:28.813Z,14.30
2018-09-29T16:21:57.633Z,14.20
2018-09-29T16:24:26.564Z,14.10
2018-09-29T16:26:55.622Z,14.10
2018-09-29T16:29:24.418Z,14.00
2018-09-29T16:31:53.235Z,13.90
2018-09-29T16:34:21.991Z,13.90
2018-09-29T16:36:50.469Z,13.90
2018-09-29T16:39:19.031Z,14.00
2018-09-29T16:41:47.751Z,14.50
2018-09-29T16:44:16.420Z,14.50
2018-09-29T16:46:45.108Z,14.40
2018-09-29T16:49:14.033Z,14.10
2018-09-29T16:51:42.833Z,13.90
2018-09-29T16:54:11.579Z,13.80
2018-09-29T16:56:40.236Z,13.60
2018-09-29T16:59:08.929Z,13.50
2018-09-29T17:01:37.807Z,13.40
2018-09-29T17:04:06.846Z,13.30
2018-09-29T17:06:35.728Z,13.20
2018-09-29T17:09:06.480Z,13.20
2018-09-29T17:11:35.326Z,13.10
2018-09-29T17:14:04.307Z,13.00
2018-09-29T17:16:33.297Z,13.00
2018-09-29T17:19:02.103Z,12.90
2018-09-29T17:21:30.825Z,12.80
2018-09-29T17:23:59.741Z,12.70
2018-09-29T17:26:28.528Z,12.70
2018-09-29T17:28:57.420Z,12.60
2018-09-29T17:31:26.169Z,12.60
2018-09-29T17:33:54.752Z,12.50
2018-09-29T17:36:23.163Z,12.50
2018-09-29T17:38:52.118Z,12.40
2018-09-29T17:41:20.934Z,12.40
2018-09-29T17:43:49.907Z,12.30
2018-09-29T17:46:19.134Z,12.30
2018-09-29T17:48:47.797Z,12.20
2018-09-29T17:51:16.372Z,12.20
2018-09-29T17:53:45.352Z,12.20
2018-09-29T17:56:20.294Z,12.10
2018-09-29T17:58:49.215Z,12.10
2018-09-29T18:01:18.093Z,12.00
2018-09-29T18:03:46.857Z,12.00
2018-09-29T18:06:15.443Z,12.00
2018-09-29T18:08:44.140Z,11.90
2018-09-29T18:11:12.730Z,11.90
2018-09-29T18:13:41.685Z,11.80
2018-09-29T18:16:10.330Z,11.80
2018-09-29T18:18:39.404Z,11.70
2018-09-29T18:21:08.690Z,11.70
2018-09-29T18:23:37.786Z,11.70
2018-09-29T18:26:13.229Z,11.70
2018-09-29T18:28:41.757Z,11.70
2018-09-29T18:31:10.409Z,11.60
2018-09-29T18:33:38.957Z,11.60
2018-09-29T18:36:07.588Z,11.60
2018-09-29T18:38:36.655Z,11.50
2018-09-29T18:41:05.217Z,11.50
2018-09-29T18:43:34.048Z,11.40
2018-09-29T18:46:02.811Z,11.40
2018-09-29T18:48:31.599Z,11.30
2018-09-29T18:51:00.283Z,11.30
2018-09-29T18:53:29.056Z,11.30
2018-09-29T18:55:57.710Z,11.30
2018-09-29T18:58:26.673Z,11.20
2018-09-29T19:00:55.544Z,11.20
2018-09-29T19:03:33.633Z,11.10
2018-09-29T19:06:02.260Z,11.10
2018-09-29T19:08:30.841Z,11.10
2018-09-29T19:10:59.526Z,11.00
2018-09-29T19:13:28.048Z,11.00
2018-09-29T19:15:56.694Z,10.90
2018-09-29T19:18:25.512Z,10.80
2018-09-29T19:20:54.676Z,10.80
2018-09-29T19:23:23.110Z,10.80
2018-09-29T19:25:51.639Z,10.80
2018-09-29T19:28:20.165Z,10.70
2018-09-29T19:30:48.681Z,10.70
2018-09-29T19:33:17.086Z,10.70
2018-09-29T19:35:45.980Z,10.70
2018-09-29T19:38:14.772Z,10.60
2018-09-29T19:40:43.554Z,10.60
2018-09-29T19:43:12.245Z,10.50
2018-09-29T19:45:41.020Z,10.40
2018-09-29T19:48:09.913Z,10.40
2018-09-29T19:50:38.948Z,10.50
2018-09-29T19:53:08.430Z,10.40
2018-09-29T19:55:38.360Z,10.40
2018-09-29T19:58:07.154Z,10.40
2018-09-29T20:00:35.737Z,10.40
2018-09-29T20:03:04.370Z,10.40
2018-09-29T20:05:33.094Z,10.20
2018-09-29T20:08:01.841Z,10.20
2018-09-29T20:10:30.555Z,10.20
2018-09-29T20:12:59.422Z,10.20
2018-09-29T20:15:28.133Z,10.20
2018-09-29T20:17:56.685Z,10.20
2018-09-29T20:20:25.397Z,10.10
2018-09-29T20:22:53.950Z,10.10
2018-09-29T20:25:22.677Z,10.00
2018-09-29T20:27:51.163Z,10.00
2018-09-29T20:30:19.598Z,9.90
2018-09-29T20:32:48.345Z,9.80
2018-09-29T20:35:17.353Z,9.90
2018-09-29T20:37:46.016Z,9.80
2018-09-29T20:40:15.212Z,9.80
2018-09-29T20:42:43.650Z,9.90
2018-09-29T20:45:12.253Z,9.80
2018-09-29T20:47:40.972Z,9.80
2018-09-29T20:50:09.798Z,9.70
2018-09-29T20:52:38.460Z,9.70
2018-09-29T20:55:07.035Z,9.70
2018-09-29T20:57:35.690Z,9.70
2018-09-29T21:00:04.590Z,9.70
2018-09-29T21:02:33.557Z,9.60
2018-09-29T21:05:02.434Z,9.60
2018-09-29T21:07:31.073Z,9.60
2018-09-29T21:09:59.541Z,9.70
2018-09-29T21:12:28.344Z,9.60
2018-09-29T21:14:57.216Z,9.40
2018-09-29T21:17:25.898Z,9.20
2018-09-29T21:19:54.690Z,9.30
2018-09-29T21:22:23.229Z,9.40
2018-09-29T21:24:51.666Z,9.40
2018-09-29T21:27:20.109Z,9.40
2018-09-29T21:29:48.588Z,9.50
2018-09-29T21:32:17.290Z,9.40
2018-09-29T21:34:45.979Z,9.30
2018-09-29T21:37:14.766Z,9.30
2018-09-29T21:39:43.725Z,9.30
2018-09-29T21:42:12.345Z,9.20
2018-09-29T21:44:40.998Z,9.10
2018-09-29T21:47:09.461Z,9.10
2018-09-29T21:49:38.352Z,9.20
2018-09-29T21:52:07.432Z,9.10
2018-09-29T21:54:36.060Z,9.10
2018-09-29T21:57:04.782Z,9.10
2018-09-29T21:59:33.473Z,9.00
2018-09-29T22:02:02.140Z,9.00
2018-09-29T22:04:30.690Z,9.00
2018-09-29T22:06:59.540Z,8.80
2018-09-29T22:09:28.410Z,8.90
2018-09-29T22:11:57.111Z,8.90
2018-09-29T22:14:25.893Z,9.00
2018-09-29T22:16:55.315Z,9.00
2018-09-29T22:19:24.348Z,8.90
2018-09-29T22:21:53.334Z,8.90
2018-09-29T22:24:22.082Z,8.90
2018-09-29T22:26:50.651Z,8.90
2018-09-29T22:29:19.098Z,8.70
2018-09-29T22:31:47.847Z,8.60
2018-09-29T22:34:16.713Z,8.70
2018-09-29T22:36:45.155Z,8.70
2018-09-29T22:39:14.023Z,8.70
2018-09-29T22:41:42.569Z,8.70
2018-09-29T22:44:11.249Z,8.70
2018-09-29T22:46:40.344Z,8.80
2018-09-29T22:49:09.144Z,8.70
2018-09-29T22:51:38.394Z,8.70
2018-09-29T22:54:07.337Z,8.60
2018-09-29T22:56:36.296Z,8.60
2018-09-29T22:59:05.004Z,8.50
2018-09-29T23:01:33.649Z,8.50
2018-09-29T23:04:02.272Z,8.50
2018-09-29T23:06:31.026Z,8.40
2018-09-29T23:08:59.894Z,8.50
2018-09-29T23:11:28.822Z,8.50
2018-09-29T23:13:57.631Z,8.50
2018-09-29T23:16:26.201Z,8.50
2018-09-29T23:18:55.110Z,8.40
2018-09-29T23:21:23.853Z,8.30
2018-09-29T23:23:52.349Z,8.30
2018-09-29T23:26:20.967Z,8.30
2018-09-29T23:28:50.079Z,8.40
2018-09-29T23:31:18.815Z,8.30
2018-09-29T23:33:47.708Z,8.30
2018-09-29T23:36:16.487Z,8.30
2018-09-29T23:38:45.220Z,8.20
2018-09-29T23:41:13.903Z,8.20
2018-09-29T23:43:42.725Z,8.30
2018-09-29T23:46:11.581Z,8.30
2018-09-29T23:48:40.217Z,8.10
2018-09-29T23:51:09.070Z,8.20
2018-09-29T23:53:37.568Z,8.20
2018-09-29T23:56:06.423Z,8.20
2018-09-29T23:58:35.091Z,8.10
